sensor_id;sensor_type;location;lat;lon;timestamp;P1;durP1;ratioP1;P2;durP2;ratioP2
70433;SDS011;57876;47.792;12.960;2023-05-02T00:02:20;4.73;;;1.67;;
70433;SDS011;57876;47.792;12.960;2023-05-02T00:04:44;4.77;;;1.70;;
70433;SDS011;57876;47.792;12.960;2023-05-02T00:07:09;5.03;;;1.63;;
70433;SDS011;57876;47.792;12.960;2023-05-02T00:09:34;5.00;;;1.65;;
70433;SDS011;57876;47.792;12.960;2023-05-02T00:11:58;4.80;;;1.60;;
70433;SDS011;57876;47.792;12.960;2023-05-02T00:14:23;5.05;;;1.80;;
70433;SDS011;57876;47.792;12.960;2023-05-02T00:16:47;5.10;;;1.80;;
70433;SDS011;57876;47.792;12.960;2023-05-02T00:19:12;5.00;;;1.67;;
70433;SDS011;57876;47.792;12.960;2023-05-02T00:21:36;4.90;;;1.67;;
70433;SDS011;57876;47.792;12.960;2023-05-02T00:24:01;4.93;;;1.42;;
70433;SDS011;57876;47.792;12.960;2023-05-02T00:26:25;5.00;;;1.40;;
70433;SDS011;57876;47.792;12.960;2023-05-02T00:28:50;4.90;;;1.67;;
70433;SDS011;57876;47.792;12.960;2023-05-02T00:31:15;5.07;;;1.77;;
70433;SDS011;57876;47.792;12.960;2023-05-02T00:33:39;4.90;;;1.60;;
70433;SDS011;57876;47.792;12.960;2023-05-02T00:36:04;4.60;;;1.40;;
70433;SDS011;57876;47.792;12.960;2023-05-02T00:38:35;4.67;;;1.37;;
70433;SDS011;57876;47.792;12.960;2023-05-02T00:41:00;4.75;;;1.40;;
70433;SDS011;57876;47.792;12.960;2023-05-02T00:43:24;4.77;;;1.30;;
70433;SDS011;57876;47.792;12.960;2023-05-02T00:45:53;4.80;;;1.40;;
70433;SDS011;57876;47.792;12.960;2023-05-02T00:48:18;4.90;;;1.70;;
70433;SDS011;57876;47.792;12.960;2023-05-02T00:50:44;4.65;;;1.45;;
70433;SDS011;57876;47.792;12.960;2023-05-02T00:53:09;5.13;;;1.60;;
70433;SDS011;57876;47.792;12.960;2023-05-02T00:55:34;5.68;;;1.67;;
70433;SDS011;57876;47.792;12.960;2023-05-02T00:58:02;5.90;;;1.88;;
70433;SDS011;57876;47.792;12.960;2023-05-02T01:00:34;5.10;;;1.50;;
70433;SDS011;57876;47.792;12.960;2023-05-02T01:03:20;5.10;;;1.60;;
70433;SDS011;57876;47.792;12.960;2023-05-02T01:06:02;5.10;;;1.75;;
70433;SDS011;57876;47.792;12.960;2023-05-02T01:08:37;4.75;;;1.50;;
70433;SDS011;57876;47.792;12.960;2023-05-02T01:13:44;4.63;;;1.60;;
70433;SDS011;57876;47.792;12.960;2023-05-02T01:16:11;4.60;;;1.30;;
70433;SDS011;57876;47.792;12.960;2023-05-02T01:18:37;5.20;;;1.70;;
70433;SDS011;57876;47.792;12.960;2023-05-02T01:21:06;5.03;;;1.75;;
70433;SDS011;57876;47.792;12.960;2023-05-02T01:26:12;5.35;;;1.70;;
70433;SDS011;57876;47.792;12.960;2023-05-02T01:31:45;5.28;;;1.50;;
70433;SDS011;57876;47.792;12.960;2023-05-02T01:34:12;4.68;;;1.33;;
70433;SDS011;57876;47.792;12.960;2023-05-02T01:36:41;5.00;;;1.60;;
70433;SDS011;57876;47.792;12.960;2023-05-02T01:39:08;4.78;;;1.42;;
70433;SDS011;57876;47.792;12.960;2023-05-02T01:41:35;4.80;;;1.40;;
70433;SDS011;57876;47.792;12.960;2023-05-02T01:44:01;5.03;;;1.70;;
70433;SDS011;57876;47.792;12.960;2023-05-02T01:46:26;4.82;;;1.30;;
70433;SDS011;57876;47.792;12.960;2023-05-02T01:48:56;4.67;;;1.37;;
70433;SDS011;57876;47.792;12.960;2023-05-02T01:51:22;5.15;;;1.55;;
70433;SDS011;57876;47.792;12.960;2023-05-02T01:53:54;4.43;;;1.30;;
70433;SDS011;57876;47.792;12.960;2023-05-02T01:56:22;4.45;;;1.30;;
70433;SDS011;57876;47.792;12.960;2023-05-02T01:58:48;5.00;;;1.50;;
70433;SDS011;57876;47.792;12.960;2023-05-02T02:01:15;4.70;;;1.43;;
70433;SDS011;57876;47.792;12.960;2023-05-02T02:03:41;5.30;;;1.40;;
70433;SDS011;57876;47.792;12.960;2023-05-02T02:06:06;4.80;;;1.40;;
70433;SDS011;57876;47.792;12.960;2023-05-02T02:08:32;5.00;;;1.55;;
70433;SDS011;57876;47.792;12.960;2023-05-02T02:10:58;4.60;;;1.30;;
70433;SDS011;57876;47.792;12.960;2023-05-02T02:13:33;4.72;;;1.38;;
70433;SDS011;57876;47.792;12.960;2023-05-02T02:16:01;5.15;;;1.50;;
70433;SDS011;57876;47.792;12.960;2023-05-02T02:18:28;4.60;;;1.50;;
70433;SDS011;57876;47.792;12.960;2023-05-02T02:20:54;4.37;;;1.30;;
70433;SDS011;57876;47.792;12.960;2023-05-02T02:23:22;4.80;;;1.55;;
70433;SDS011;57876;47.792;12.960;2023-05-02T02:25:50;4.60;;;1.40;;
70433;SDS011;57876;47.792;12.960;2023-05-02T02:28:16;4.43;;;1.33;;
70433;SDS011;57876;47.792;12.960;2023-05-02T02:30:41;4.20;;;1.30;;
70433;SDS011;57876;47.792;12.960;2023-05-02T02:33:05;4.63;;;1.30;;
70433;SDS011;57876;47.792;12.960;2023-05-02T02:35:34;5.07;;;1.40;;
70433;SDS011;57876;47.792;12.960;2023-05-02T02:41:00;4.90;;;1.23;;
70433;SDS011;57876;47.792;12.960;2023-05-02T02:51:27;4.80;;;1.50;;
70433;SDS011;57876;47.792;12.960;2023-05-02T02:56:39;4.30;;;1.30;;
70433;SDS011;57876;47.792;12.960;2023-05-02T02:59:06;4.40;;;1.30;;
70433;SDS011;57876;47.792;12.960;2023-05-02T03:01:39;4.87;;;1.57;;
70433;SDS011;57876;47.792;12.960;2023-05-02T03:04:06;4.65;;;1.50;;
70433;SDS011;57876;47.792;12.960;2023-05-02T03:06:32;4.63;;;1.27;;
70433;SDS011;57876;47.792;12.960;2023-05-02T03:08:57;4.40;;;1.20;;
70433;SDS011;57876;47.792;12.960;2023-05-02T03:11:21;4.60;;;1.52;;
70433;SDS011;57876;47.792;12.960;2023-05-02T03:13:46;5.00;;;1.20;;
70433;SDS011;57876;47.792;12.960;2023-05-02T03:19:10;4.70;;;1.40;;
70433;SDS011;57876;47.792;12.960;2023-05-02T03:21:35;4.73;;;1.43;;
70433;SDS011;57876;47.792;12.960;2023-05-02T03:24:00;4.33;;;1.17;;
70433;SDS011;57876;47.792;12.960;2023-05-02T03:26:25;5.00;;;1.55;;
70433;SDS011;57876;47.792;12.960;2023-05-02T03:28:50;4.70;;;1.38;;
70433;SDS011;57876;47.792;12.960;2023-05-02T03:31:14;5.10;;;1.70;;
70433;SDS011;57876;47.792;12.960;2023-05-02T03:33:39;4.70;;;1.60;;
70433;SDS011;57876;47.792;12.960;2023-05-02T03:36:03;4.38;;;1.20;;
70433;SDS011;57876;47.792;12.960;2023-05-02T03:38:28;4.27;;;1.30;;
70433;SDS011;57876;47.792;12.960;2023-05-02T03:40:55;4.50;;;1.30;;
70433;SDS011;57876;47.792;12.960;2023-05-02T03:43:20;4.70;;;1.30;;
70433;SDS011;57876;47.792;12.960;2023-05-02T03:45:44;4.70;;;1.30;;
70433;SDS011;57876;47.792;12.960;2023-05-02T03:48:09;4.33;;;1.20;;
70433;SDS011;57876;47.792;12.960;2023-05-02T03:50:33;4.30;;;1.20;;
70433;SDS011;57876;47.792;12.960;2023-05-02T03:52:57;4.35;;;1.20;;
70433;SDS011;57876;47.792;12.960;2023-05-02T03:55:22;4.67;;;1.33;;
70433;SDS011;57876;47.792;12.960;2023-05-02T03:57:46;4.40;;;1.27;;
70433;SDS011;57876;47.792;12.960;2023-05-02T04:00:11;4.20;;;1.13;;
70433;SDS011;57876;47.792;12.960;2023-05-02T04:02:35;4.38;;;1.30;;
70433;SDS011;57876;47.792;12.960;2023-05-02T04:05:00;4.43;;;1.13;;
70433;SDS011;57876;47.792;12.960;2023-05-02T04:07:24;5.10;;;1.57;;
70433;SDS011;57876;47.792;12.960;2023-05-02T04:09:49;6.38;;;2.17;;
70433;SDS011;57876;47.792;12.960;2023-05-02T04:12:14;6.20;;;2.13;;
70433;SDS011;57876;47.792;12.960;2023-05-02T04:14:38;5.68;;;1.75;;
70433;SDS011;57876;47.792;12.960;2023-05-02T04:17:03;5.60;;;1.50;;
70433;SDS011;57876;47.792;12.960;2023-05-02T04:19:27;5.30;;;1.67;;
70433;SDS011;57876;47.792;12.960;2023-05-02T04:21:52;4.97;;;1.47;;
70433;SDS011;57876;47.792;12.960;2023-05-02T04:24:16;4.57;;;1.20;;
70433;SDS011;57876;47.792;12.960;2023-05-02T04:26:40;4.37;;;1.10;;
70433;SDS011;57876;47.792;12.960;2023-05-02T04:29:05;4.70;;;1.33;;
70433;SDS011;57876;47.792;12.960;2023-05-02T04:31:32;4.60;;;1.17;;
70433;SDS011;57876;47.792;12.960;2023-05-02T04:33:57;4.40;;;1.13;;
70433;SDS011;57876;47.792;12.960;2023-05-02T04:36:27;4.90;;;1.20;;
70433;SDS011;57876;47.792;12.960;2023-05-02T04:38:52;4.23;;;1.10;;
70433;SDS011;57876;47.792;12.960;2023-05-02T04:41:16;4.47;;;1.20;;
70433;SDS011;57876;47.792;12.960;2023-05-02T04:43:41;4.30;;;1.10;;
70433;SDS011;57876;47.792;12.960;2023-05-02T04:46:05;4.33;;;1.10;;
70433;SDS011;57876;47.792;12.960;2023-05-02T04:48:32;4.40;;;1.20;;
70433;SDS011;57876;47.792;12.960;2023-05-02T04:50:56;4.07;;;1.00;;
70433;SDS011;57876;47.792;12.960;2023-05-02T04:53:21;4.30;;;1.10;;
70433;SDS011;57876;47.792;12.960;2023-05-02T04:55:46;4.22;;;1.00;;
70433;SDS011;57876;47.792;12.960;2023-05-02T04:58:11;4.30;;;1.10;;
70433;SDS011;57876;47.792;12.960;2023-05-02T05:00:35;4.30;;;1.20;;
70433;SDS011;57876;47.792;12.960;2023-05-02T05:03:00;4.07;;;1.00;;
70433;SDS011;57876;47.792;12.960;2023-05-02T05:05:24;4.23;;;1.00;;
70433;SDS011;57876;47.792;12.960;2023-05-02T05:07:49;4.10;;;1.10;;
70433;SDS011;57876;47.792;12.960;2023-05-02T05:10:15;4.27;;;1.27;;
70433;SDS011;57876;47.792;12.960;2023-05-02T05:12:40;4.35;;;1.20;;
70433;SDS011;57876;47.792;12.960;2023-05-02T05:15:05;4.07;;;1.10;;
70433;SDS011;57876;47.792;12.960;2023-05-02T05:17:30;4.22;;;1.10;;
70433;SDS011;57876;47.792;12.960;2023-05-02T05:19:54;4.33;;;1.20;;
70433;SDS011;57876;47.792;12.960;2023-05-02T05:22:18;4.20;;;1.10;;
70433;SDS011;57876;47.792;12.960;2023-05-02T05:24:49;4.20;;;1.07;;
70433;SDS011;57876;47.792;12.960;2023-05-02T05:27:15;4.57;;;1.10;;
70433;SDS011;57876;47.792;12.960;2023-05-02T05:29:39;4.97;;;1.40;;
70433;SDS011;57876;47.792;12.960;2023-05-02T05:32:04;4.43;;;1.20;;
70433;SDS011;57876;47.792;12.960;2023-05-02T05:34:29;4.47;;;1.40;;
70433;SDS011;57876;47.792;12.960;2023-05-02T05:36:53;4.25;;;1.00;;
70433;SDS011;57876;47.792;12.960;2023-05-02T05:39:18;4.57;;;1.20;;
70433;SDS011;57876;47.792;12.960;2023-05-02T05:41:42;4.60;;;1.20;;
70433;SDS011;57876;47.792;12.960;2023-05-02T05:44:07;4.40;;;1.10;;
70433;SDS011;57876;47.792;12.960;2023-05-02T05:46:31;3.97;;;1.00;;
70433;SDS011;57876;47.792;12.960;2023-05-02T05:48:56;4.17;;;1.20;;
70433;SDS011;57876;47.792;12.960;2023-05-02T05:51:20;4.50;;;1.30;;
70433;SDS011;57876;47.792;12.960;2023-05-02T05:53:44;4.43;;;1.30;;
70433;SDS011;57876;47.792;12.960;2023-05-02T05:56:09;4.47;;;1.30;;
70433;SDS011;57876;47.792;12.960;2023-05-02T05:58:34;5.20;;;1.13;;
70433;SDS011;57876;47.792;12.960;2023-05-02T06:01:02;4.20;;;1.17;;
70433;SDS011;57876;47.792;12.960;2023-05-02T06:03:27;4.85;;;1.20;;
70433;SDS011;57876;47.792;12.960;2023-05-02T06:05:51;4.63;;;1.13;;
70433;SDS011;57876;47.792;12.960;2023-05-02T06:08:15;4.20;;;1.13;;
70433;SDS011;57876;47.792;12.960;2023-05-02T06:10:40;4.30;;;1.10;;
70433;SDS011;57876;47.792;12.960;2023-05-02T06:13:04;4.23;;;1.07;;
70433;SDS011;57876;47.792;12.960;2023-05-02T06:15:29;4.18;;;0.95;;
70433;SDS011;57876;47.792;12.960;2023-05-02T06:17:56;4.00;;;1.00;;
70433;SDS011;57876;47.792;12.960;2023-05-02T06:20:21;4.57;;;1.20;;
70433;SDS011;57876;47.792;12.960;2023-05-02T06:22:45;4.37;;;1.20;;
70433;SDS011;57876;47.792;12.960;2023-05-02T06:25:10;4.07;;;1.00;;
70433;SDS011;57876;47.792;12.960;2023-05-02T06:27:34;4.60;;;1.27;;
70433;SDS011;57876;47.792;12.960;2023-05-02T06:29:59;4.30;;;1.10;;
70433;SDS011;57876;47.792;12.960;2023-05-02T06:32:23;4.13;;;1.00;;
70433;SDS011;57876;47.792;12.960;2023-05-02T06:34:48;4.30;;;1.07;;
70433;SDS011;57876;47.792;12.960;2023-05-02T06:37:12;4.47;;;1.20;;
70433;SDS011;57876;47.792;12.960;2023-05-02T06:39:36;4.43;;;1.07;;
70433;SDS011;57876;47.792;12.960;2023-05-02T06:42:01;4.50;;;1.17;;
70433;SDS011;57876;47.792;12.960;2023-05-02T06:44:25;4.03;;;1.00;;
70433;SDS011;57876;47.792;12.960;2023-05-02T06:46:52;4.07;;;1.10;;
70433;SDS011;57876;47.792;12.960;2023-05-02T06:49:18;4.22;;;1.17;;
70433;SDS011;57876;47.792;12.960;2023-05-02T06:51:45;3.93;;;1.10;;
70433;SDS011;57876;47.792;12.960;2023-05-02T06:54:09;4.22;;;1.00;;
70433;SDS011;57876;47.792;12.960;2023-05-02T06:56:34;4.60;;;1.20;;
70433;SDS011;57876;47.792;12.960;2023-05-02T06:58:59;4.22;;;1.10;;
70433;SDS011;57876;47.792;12.960;2023-05-02T07:01:23;4.67;;;1.10;;
70433;SDS011;57876;47.792;12.960;2023-05-02T07:03:48;5.13;;;1.10;;
70433;SDS011;57876;47.792;12.960;2023-05-02T07:06:12;4.75;;;1.23;;
70433;SDS011;57876;47.792;12.960;2023-05-02T07:08:37;7.20;;;1.07;;
70433;SDS011;57876;47.792;12.960;2023-05-02T07:11:01;4.20;;;1.00;;
70433;SDS011;57876;47.792;12.960;2023-05-02T07:13:26;4.18;;;0.90;;
70433;SDS011;57876;47.792;12.960;2023-05-02T07:15:51;4.10;;;1.00;;
70433;SDS011;57876;47.792;12.960;2023-05-02T07:18:19;4.47;;;1.10;;
70433;SDS011;57876;47.792;12.960;2023-05-02T07:20:44;4.53;;;1.13;;
70433;SDS011;57876;47.792;12.960;2023-05-02T07:23:08;4.47;;;1.20;;
70433;SDS011;57876;47.792;12.960;2023-05-02T07:25:33;4.47;;;1.13;;
70433;SDS011;57876;47.792;12.960;2023-05-02T07:27:58;4.53;;;1.05;;
70433;SDS011;57876;47.792;12.960;2023-05-02T07:30:22;4.33;;;1.23;;
70433;SDS011;57876;47.792;12.960;2023-05-02T07:32:46;4.70;;;1.43;;
70433;SDS011;57876;47.792;12.960;2023-05-02T07:35:11;4.53;;;1.20;;
70433;SDS011;57876;47.792;12.960;2023-05-02T07:37:36;4.50;;;1.10;;
70433;SDS011;57876;47.792;12.960;2023-05-02T07:40:00;4.60;;;1.20;;
70433;SDS011;57876;47.792;12.960;2023-05-02T07:42:29;4.50;;;1.13;;
70433;SDS011;57876;47.792;12.960;2023-05-02T07:44:54;4.30;;;1.27;;
70433;SDS011;57876;47.792;12.960;2023-05-02T07:47:18;4.13;;;1.00;;
70433;SDS011;57876;47.792;12.960;2023-05-02T07:49:43;3.97;;;0.90;;
70433;SDS011;57876;47.792;12.960;2023-05-02T07:52:07;4.13;;;0.93;;
70433;SDS011;57876;47.792;12.960;2023-05-02T07:54:31;4.03;;;0.97;;
70433;SDS011;57876;47.792;12.960;2023-05-02T07:56:56;4.37;;;1.17;;
70433;SDS011;57876;47.792;12.960;2023-05-02T07:59:25;4.00;;;0.80;;
70433;SDS011;57876;47.792;12.960;2023-05-02T08:01:49;4.20;;;0.90;;
70433;SDS011;57876;47.792;12.960;2023-05-02T08:04:13;3.88;;;0.93;;
70433;SDS011;57876;47.792;12.960;2023-05-02T08:06:38;3.93;;;1.00;;
70433;SDS011;57876;47.792;12.960;2023-05-02T08:09:03;4.50;;;1.00;;
70433;SDS011;57876;47.792;12.960;2023-05-02T08:11:27;4.07;;;1.00;;
70433;SDS011;57876;47.792;12.960;2023-05-02T08:13:52;4.53;;;1.00;;
70433;SDS011;57876;47.792;12.960;2023-05-02T08:16:17;4.22;;;0.93;;
70433;SDS011;57876;47.792;12.960;2023-05-02T08:18:42;4.95;;;1.20;;
70433;SDS011;57876;47.792;12.960;2023-05-02T08:21:06;6.53;;;1.30;;
70433;SDS011;57876;47.792;12.960;2023-05-02T08:23:31;4.13;;;0.90;;
70433;SDS011;57876;47.792;12.960;2023-05-02T08:25:55;8.07;;;1.48;;
70433;SDS011;57876;47.792;12.960;2023-05-02T08:28:20;146.17;;;10.43;;
70433;SDS011;57876;47.792;12.960;2023-05-02T08:30:44;412.83;;;38.07;;
70433;SDS011;57876;47.792;12.960;2023-05-02T08:33:09;553.37;;;68.33;;
70433;SDS011;57876;47.792;12.960;2023-05-02T08:35:33;549.73;;;65.67;;
70433;SDS011;57876;47.792;12.960;2023-05-02T08:37:57;554.97;;;66.67;;
70433;SDS011;57876;47.792;12.960;2023-05-02T08:40:22;538.37;;;69.40;;
70433;SDS011;57876;47.792;12.960;2023-05-02T08:42:47;535.13;;;68.77;;
70433;SDS011;57876;47.792;12.960;2023-05-02T08:45:12;532.75;;;68.30;;
70433;SDS011;57876;47.792;12.960;2023-05-02T08:47:37;516.85;;;66.32;;
70433;SDS011;57876;47.792;12.960;2023-05-02T08:50:04;506.73;;;69.17;;
70433;SDS011;57876;47.792;12.960;2023-05-02T08:52:29;484.13;;;65.13;;
70433;SDS011;57876;47.792;12.960;2023-05-02T08:54:55;502.95;;;65.63;;
70433;SDS011;57876;47.792;12.960;2023-05-02T08:57:21;484.00;;;64.53;;
70433;SDS011;57876;47.792;12.960;2023-05-02T08:59:45;448.10;;;62.57;;
70433;SDS011;57876;47.792;12.960;2023-05-02T09:02:11;471.40;;;63.25;;
70433;SDS011;57876;47.792;12.960;2023-05-02T09:04:46;436.13;;;59.78;;
70433;SDS011;57876;47.792;12.960;2023-05-02T09:07:15;449.73;;;62.30;;
70433;SDS011;57876;47.792;12.960;2023-05-02T09:09:39;408.15;;;58.60;;
70433;SDS011;57876;47.792;12.960;2023-05-02T09:12:04;427.70;;;59.37;;
70433;SDS011;57876;47.792;12.960;2023-05-02T09:14:28;419.50;;;59.83;;
70433;SDS011;57876;47.792;12.960;2023-05-02T09:16:57;422.33;;;57.63;;
70433;SDS011;57876;47.792;12.960;2023-05-02T09:19:25;367.33;;;51.63;;
70433;SDS011;57876;47.792;12.960;2023-05-02T09:21:50;348.23;;;51.70;;
70433;SDS011;57876;47.792;12.960;2023-05-02T09:24:15;343.87;;;46.60;;
70433;SDS011;57876;47.792;12.960;2023-05-02T09:27:00;370.73;;;51.60;;
70433;SDS011;57876;47.792;12.960;2023-05-02T09:29:26;367.02;;;53.15;;
70433;SDS011;57876;47.792;12.960;2023-05-02T09:31:53;352.48;;;50.63;;
70433;SDS011;57876;47.792;12.960;2023-05-02T09:34:18;343.93;;;48.57;;
70433;SDS011;57876;47.792;12.960;2023-05-02T09:36:46;314.13;;;46.70;;
70433;SDS011;57876;47.792;12.960;2023-05-02T09:39:18;345.25;;;50.20;;
70433;SDS011;57876;47.792;12.960;2023-05-02T09:41:46;339.02;;;48.97;;
70433;SDS011;57876;47.792;12.960;2023-05-02T09:44:12;307.58;;;46.60;;
70433;SDS011;57876;47.792;12.960;2023-05-02T09:46:42;301.58;;;46.13;;
70433;SDS011;57876;47.792;12.960;2023-05-02T09:49:08;258.37;;;42.60;;
70433;SDS011;57876;47.792;12.960;2023-05-02T09:51:33;304.85;;;46.17;;
70433;SDS011;57876;47.792;12.960;2023-05-02T09:54:06;277.80;;;45.50;;
70433;SDS011;57876;47.792;12.960;2023-05-02T09:56:30;294.95;;;44.42;;
70433;SDS011;57876;47.792;12.960;2023-05-02T09:59:11;239.23;;;42.30;;
70433;SDS011;57876;47.792;12.960;2023-05-02T10:01:37;257.48;;;41.65;;
70433;SDS011;57876;47.792;12.960;2023-05-02T10:04:03;238.98;;;42.25;;
70433;SDS011;57876;47.792;12.960;2023-05-02T10:06:27;251.20;;;40.40;;
70433;SDS011;57876;47.792;12.960;2023-05-02T10:08:52;241.97;;;40.73;;
70433;SDS011;57876;47.792;12.960;2023-05-02T10:11:17;232.07;;;41.73;;
70433;SDS011;57876;47.792;12.960;2023-05-02T10:13:42;207.77;;;41.17;;
70433;SDS011;57876;47.792;12.960;2023-05-02T10:16:07;225.93;;;37.87;;
70433;SDS011;57876;47.792;12.960;2023-05-02T10:18:43;221.68;;;37.88;;
70433;SDS011;57876;47.792;12.960;2023-05-02T10:21:11;194.93;;;39.08;;
70433;SDS011;57876;47.792;12.960;2023-05-02T10:23:48;219.73;;;38.20;;
70433;SDS011;57876;47.792;12.960;2023-05-02T10:26:13;193.10;;;36.57;;
70433;SDS011;57876;47.792;12.960;2023-05-02T10:28:40;192.10;;;36.20;;
70433;SDS011;57876;47.792;12.960;2023-05-02T10:31:05;203.60;;;38.90;;
70433;SDS011;57876;47.792;12.960;2023-05-02T10:33:33;184.77;;;37.40;;
70433;SDS011;57876;47.792;12.960;2023-05-02T10:35:59;169.27;;;34.72;;
70433;SDS011;57876;47.792;12.960;2023-05-02T10:38:24;166.97;;;34.80;;
70433;SDS011;57876;47.792;12.960;2023-05-02T10:40:55;162.25;;;34.13;;
70433;SDS011;57876;47.792;12.960;2023-05-02T10:43:24;174.02;;;34.97;;
70433;SDS011;57876;47.792;12.960;2023-05-02T10:45:52;185.48;;;35.25;;
70433;SDS011;57876;47.792;12.960;2023-05-02T10:50:50;146.88;;;32.13;;
70433;SDS011;57876;47.792;12.960;2023-05-02T10:53:22;179.15;;;33.90;;
70433;SDS011;57876;47.792;12.960;2023-05-02T10:56:10;148.38;;;32.25;;
70433;SDS011;57876;47.792;12.960;2023-05-02T10:58:38;148.57;;;32.35;;
70433;SDS011;57876;47.792;12.960;2023-05-02T11:03:54;150.10;;;31.80;;
70433;SDS011;57876;47.792;12.960;2023-05-02T11:06:26;155.00;;;30.17;;
70433;SDS011;57876;47.792;12.960;2023-05-02T11:08:52;146.38;;;30.83;;
70433;SDS011;57876;47.792;12.960;2023-05-02T11:11:42;139.32;;;29.65;;
70433;SDS011;57876;47.792;12.960;2023-05-02T11:14:08;139.00;;;29.40;;
70433;SDS011;57876;47.792;12.960;2023-05-02T11:19:31;131.52;;;28.08;;
70433;SDS011;57876;47.792;12.960;2023-05-02T11:24:44;132.73;;;28.07;;
70433;SDS011;57876;47.792;12.960;2023-05-02T11:29:56;124.97;;;27.55;;
70433;SDS011;57876;47.792;12.960;2023-05-02T11:32:22;125.90;;;28.60;;
70433;SDS011;57876;47.792;12.960;2023-05-02T11:34:48;118.63;;;26.77;;
70433;SDS011;57876;47.792;12.960;2023-05-02T11:37:15;122.55;;;28.70;;
70433;SDS011;57876;47.792;12.960;2023-05-02T11:39:40;122.23;;;26.30;;
70433;SDS011;57876;47.792;12.960;2023-05-02T11:42:05;116.80;;;26.48;;
70433;SDS011;57876;47.792;12.960;2023-05-02T11:44:30;128.03;;;27.87;;
70433;SDS011;57876;47.792;12.960;2023-05-02T11:46:54;109.37;;;25.13;;
70433;SDS011;57876;47.792;12.960;2023-05-02T11:49:19;103.60;;;25.53;;
70433;SDS011;57876;47.792;12.960;2023-05-02T11:51:43;100.20;;;25.77;;
70433;SDS011;57876;47.792;12.960;2023-05-02T11:54:08;109.20;;;26.30;;
70433;SDS011;57876;47.792;12.960;2023-05-02T11:56:33;100.37;;;25.33;;
70433;SDS011;57876;47.792;12.960;2023-05-02T11:58:58;113.75;;;25.50;;
70433;SDS011;57876;47.792;12.960;2023-05-02T12:01:26;107.57;;;25.88;;
70433;SDS011;57876;47.792;12.960;2023-05-02T12:04:00;87.47;;;24.00;;
70433;SDS011;57876;47.792;12.960;2023-05-02T12:06:25;88.85;;;23.60;;
70433;SDS011;57876;47.792;12.960;2023-05-02T12:08:50;94.60;;;23.50;;
70433;SDS011;57876;47.792;12.960;2023-05-02T12:11:19;96.93;;;25.52;;
70433;SDS011;57876;47.792;12.960;2023-05-02T12:16:34;87.90;;;23.17;;
70433;SDS011;57876;47.792;12.960;2023-05-02T12:18:58;89.37;;;22.43;;
70433;SDS011;57876;47.792;12.960;2023-05-02T12:21:24;88.03;;;22.83;;
70433;SDS011;57876;47.792;12.960;2023-05-02T12:23:49;83.25;;;22.25;;
70433;SDS011;57876;47.792;12.960;2023-05-02T12:26:15;77.70;;;21.43;;
70433;SDS011;57876;47.792;12.960;2023-05-02T12:28:47;81.00;;;22.98;;
70433;SDS011;57876;47.792;12.960;2023-05-02T12:31:13;79.80;;;21.33;;
70433;SDS011;57876;47.792;12.960;2023-05-02T12:33:41;80.75;;;21.38;;
70433;SDS011;57876;47.792;12.960;2023-05-02T12:36:06;75.10;;;21.88;;
70433;SDS011;57876;47.792;12.960;2023-05-02T12:38:32;82.93;;;22.20;;
70433;SDS011;57876;47.792;12.960;2023-05-02T12:40:57;87.60;;;22.45;;
70433;SDS011;57876;47.792;12.960;2023-05-02T12:43:21;78.27;;;21.23;;
70433;SDS011;57876;47.792;12.960;2023-05-02T12:45:46;71.78;;;20.20;;
70433;SDS011;57876;47.792;12.960;2023-05-02T12:48:16;64.83;;;20.03;;
70433;SDS011;57876;47.792;12.960;2023-05-02T12:50:43;67.25;;;20.25;;
70433;SDS011;57876;47.792;12.960;2023-05-02T12:53:07;76.68;;;20.15;;
70433;SDS011;57876;47.792;12.960;2023-05-02T12:55:32;69.23;;;19.47;;
70433;SDS011;57876;47.792;12.960;2023-05-02T12:58:00;65.00;;;19.23;;
70433;SDS011;57876;47.792;12.960;2023-05-02T13:00:25;64.93;;;18.67;;
70433;SDS011;57876;47.792;12.960;2023-05-02T13:02:50;67.65;;;20.45;;
70433;SDS011;57876;47.792;12.960;2023-05-02T13:05:15;58.27;;;19.33;;
70433;SDS011;57876;47.792;12.960;2023-05-02T13:07:42;65.75;;;19.65;;
70433;SDS011;57876;47.792;12.960;2023-05-02T13:10:07;64.28;;;18.95;;
70433;SDS011;57876;47.792;12.960;2023-05-02T13:12:35;58.23;;;18.60;;
70433;SDS011;57876;47.792;12.960;2023-05-02T13:15:01;61.38;;;18.40;;
70433;SDS011;57876;47.792;12.960;2023-05-02T13:17:27;66.13;;;19.38;;
70433;SDS011;57876;47.792;12.960;2023-05-02T13:19:51;56.10;;;17.53;;
70433;SDS011;57876;47.792;12.960;2023-05-02T13:22:16;61.27;;;18.90;;
70433;SDS011;57876;47.792;12.960;2023-05-02T13:24:40;59.13;;;18.30;;
70433;SDS011;57876;47.792;12.960;2023-05-02T13:27:05;54.23;;;16.90;;
70433;SDS011;57876;47.792;12.960;2023-05-02T13:29:29;52.27;;;17.23;;
70433;SDS011;57876;47.792;12.960;2023-05-02T13:31:54;57.80;;;18.27;;
70433;SDS011;57876;47.792;12.960;2023-05-02T13:34:18;53.40;;;18.10;;
70433;SDS011;57876;47.792;12.960;2023-05-02T13:36:43;50.87;;;17.30;;
70433;SDS011;57876;47.792;12.960;2023-05-02T13:39:09;54.38;;;17.20;;
70433;SDS011;57876;47.792;12.960;2023-05-02T13:41:33;51.47;;;16.53;;
70433;SDS011;57876;47.792;12.960;2023-05-02T13:43:57;49.50;;;16.47;;
70433;SDS011;57876;47.792;12.960;2023-05-02T13:46:22;48.45;;;16.48;;
70433;SDS011;57876;47.792;12.960;2023-05-02T13:48:46;45.47;;;15.03;;
70433;SDS011;57876;47.792;12.960;2023-05-02T13:51:11;46.23;;;16.07;;
70433;SDS011;57876;47.792;12.960;2023-05-02T13:53:35;51.27;;;16.50;;
70433;SDS011;57876;47.792;12.960;2023-05-02T13:56:00;48.37;;;16.20;;
70433;SDS011;57876;47.792;12.960;2023-05-02T13:58:24;46.87;;;14.93;;
70433;SDS011;57876;47.792;12.960;2023-05-02T14:00:49;46.63;;;15.83;;
70433;SDS011;57876;47.792;12.960;2023-05-02T14:03:13;43.40;;;14.27;;
70433;SDS011;57876;47.792;12.960;2023-05-02T14:05:38;34.03;;;11.77;;
70433;SDS011;57876;47.792;12.960;2023-05-02T14:08:06;42.80;;;12.00;;
70433;SDS011;57876;47.792;12.960;2023-05-02T14:10:30;31.73;;;9.83;;
70433;SDS011;57876;47.792;12.960;2023-05-02T14:12:55;31.07;;;8.90;;
70433;SDS011;57876;47.792;12.960;2023-05-02T14:15:19;35.13;;;11.27;;
70433;SDS011;57876;47.792;12.960;2023-05-02T14:17:44;28.17;;;9.10;;
70433;SDS011;57876;47.792;12.960;2023-05-02T14:20:09;41.63;;;9.50;;
70433;SDS011;57876;47.792;12.960;2023-05-02T14:22:39;52.87;;;10.97;;
70433;SDS011;57876;47.792;12.960;2023-05-02T14:25:04;33.47;;;9.18;;
70433;SDS011;57876;47.792;12.960;2023-05-02T14:27:29;36.60;;;9.30;;
70433;SDS011;57876;47.792;12.960;2023-05-02T14:29:54;46.03;;;10.40;;
70433;SDS011;57876;47.792;12.960;2023-05-02T14:32:18;34.25;;;9.77;;
70433;SDS011;57876;47.792;12.960;2023-05-02T14:34:42;46.63;;;10.03;;
70433;SDS011;57876;47.792;12.960;2023-05-02T14:37:07;41.43;;;10.03;;
70433;SDS011;57876;47.792;12.960;2023-05-02T14:39:34;40.95;;;9.88;;
70433;SDS011;57876;47.792;12.960;2023-05-02T14:41:59;44.30;;;10.43;;
70433;SDS011;57876;47.792;12.960;2023-05-02T14:44:29;48.20;;;9.53;;
70433;SDS011;57876;47.792;12.960;2023-05-02T14:46:53;36.97;;;9.82;;
70433;SDS011;57876;47.792;12.960;2023-05-02T14:49:19;33.72;;;9.43;;
70433;SDS011;57876;47.792;12.960;2023-05-02T14:51:43;29.93;;;8.93;;
70433;SDS011;57876;47.792;12.960;2023-05-02T14:54:10;28.10;;;9.73;;
70433;SDS011;57876;47.792;12.960;2023-05-02T14:56:35;30.40;;;8.77;;